Terminal Aerodrome Forecast
Issued by NWS

Home | Current Version | Previous Version | Text Only | Print | Product List | Glossary On
Versions: 1 2 3 4 5 6 7 8 9 10 11 12 13 14 15 16 17
000
FTUS45 KTFX 250500
TAFCTB
TAF
KCTB 250536Z 2506/2606 26014KT P6SM SCT090 BKN150
     FM251500 26027G38KT P6SM BKN150
      TEMPO 2519/2523 27032G42KT
     FM260200 25018KT P6SM SCT150=

USA.gov is the U.S. government's official web portal to all federal, state and local government web resources and services.